sensor_id;sensor_type;location;lat;lon;timestamp;P1;durP1;ratioP1;P2;durP2;ratioP2
51438;SDS011;38816;51.142;-0.974;2023-04-06T00:01:20;6.00;;;4.35;;
51438;SDS011;38816;51.142;-0.974;2023-04-06T00:03:46;7.25;;;4.72;;
51438;SDS011;38816;51.142;-0.974;2023-04-06T00:06:11;6.50;;;4.13;;
51438;SDS011;38816;51.142;-0.974;2023-04-06T00:08:36;9.63;;;4.97;;
51438;SDS011;38816;51.142;-0.974;2023-04-06T00:11:02;7.85;;;4.38;;
51438;SDS011;38816;51.142;-0.974;2023-04-06T00:13:27;6.65;;;3.90;;
51438;SDS011;38816;51.142;-0.974;2023-04-06T00:15:52;6.00;;;3.95;;
51438;SDS011;38816;51.142;-0.974;2023-04-06T00:18:18;5.18;;;3.78;;
51438;SDS011;38816;51.142;-0.974;2023-04-06T00:20:44;5.82;;;3.75;;
51438;SDS011;38816;51.142;-0.974;2023-04-06T00:23:10;6.40;;;4.15;;
51438;SDS011;38816;51.142;-0.974;2023-04-06T00:25:35;6.45;;;4.10;;
51438;SDS011;38816;51.142;-0.974;2023-04-06T00:28:01;6.47;;;3.88;;
51438;SDS011;38816;51.142;-0.974;2023-04-06T00:30:26;9.25;;;4.68;;
51438;SDS011;38816;51.142;-0.974;2023-04-06T00:32:52;6.70;;;4.40;;
51438;SDS011;38816;51.142;-0.974;2023-04-06T00:35:17;6.45;;;4.25;;
51438;SDS011;38816;51.142;-0.974;2023-04-06T00:37:42;7.97;;;4.80;;
51438;SDS011;38816;51.142;-0.974;2023-04-06T00:40:08;7.28;;;4.20;;
51438;SDS011;38816;51.142;-0.974;2023-04-06T00:42:34;7.13;;;4.13;;
51438;SDS011;38816;51.142;-0.974;2023-04-06T00:45:00;10.10;;;5.13;;
51438;SDS011;38816;51.142;-0.974;2023-04-06T00:47:26;7.07;;;3.90;;
51438;SDS011;38816;51.142;-0.974;2023-04-06T00:49:52;8.38;;;4.20;;
51438;SDS011;38816;51.142;-0.974;2023-04-06T00:52:19;6.43;;;3.70;;
51438;SDS011;38816;51.142;-0.974;2023-04-06T00:54:44;7.45;;;4.00;;
51438;SDS011;38816;51.142;-0.974;2023-04-06T00:57:11;4.95;;;3.88;;
51438;SDS011;38816;51.142;-0.974;2023-04-06T00:59:37;5.75;;;3.90;;
51438;SDS011;38816;51.142;-0.974;2023-04-06T01:02:02;5.60;;;3.53;;
51438;SDS011;38816;51.142;-0.974;2023-04-06T01:04:28;5.78;;;3.90;;
51438;SDS011;38816;51.142;-0.974;2023-04-06T01:06:54;4.20;;;3.40;;
51438;SDS011;38816;51.142;-0.974;2023-04-06T01:09:19;6.05;;;4.00;;
51438;SDS011;38816;51.142;-0.974;2023-04-06T01:11:45;5.65;;;3.65;;
51438;SDS011;38816;51.142;-0.974;2023-04-06T01:14:11;4.78;;;3.05;;
51438;SDS011;38816;51.142;-0.974;2023-04-06T01:16:36;7.10;;;4.20;;
51438;SDS011;38816;51.142;-0.974;2023-04-06T01:19:08;10.07;;;5.20;;
51438;SDS011;38816;51.142;-0.974;2023-04-06T01:21:35;5.18;;;3.53;;
51438;SDS011;38816;51.142;-0.974;2023-04-06T01:24:04;9.68;;;4.53;;
51438;SDS011;38816;51.142;-0.974;2023-04-06T01:26:31;4.90;;;3.50;;
51438;SDS011;38816;51.142;-0.974;2023-04-06T01:28:56;5.03;;;3.03;;
51438;SDS011;38816;51.142;-0.974;2023-04-06T01:31:22;3.15;;;2.67;;
51438;SDS011;38816;51.142;-0.974;2023-04-06T01:33:48;6.50;;;3.90;;
51438;SDS011;38816;51.142;-0.974;2023-04-06T01:36:14;5.22;;;2.88;;
51438;SDS011;38816;51.142;-0.974;2023-04-06T01:38:40;4.60;;;2.58;;
51438;SDS011;38816;51.142;-0.974;2023-04-06T01:41:06;3.67;;;2.55;;
51438;SDS011;38816;51.142;-0.974;2023-04-06T01:43:32;4.68;;;2.90;;
51438;SDS011;38816;51.142;-0.974;2023-04-06T01:45:57;5.28;;;3.08;;
51438;SDS011;38816;51.142;-0.974;2023-04-06T01:48:23;3.72;;;2.63;;
51438;SDS011;38816;51.142;-0.974;2023-04-06T01:50:48;2.40;;;2.08;;
51438;SDS011;38816;51.142;-0.974;2023-04-06T01:53:13;2.60;;;2.00;;
51438;SDS011;38816;51.142;-0.974;2023-04-06T01:55:40;4.28;;;2.00;;
51438;SDS011;38816;51.142;-0.974;2023-04-06T01:58:05;3.20;;;2.00;;
51438;SDS011;38816;51.142;-0.974;2023-04-06T02:00:31;3.63;;;2.10;;
51438;SDS011;38816;51.142;-0.974;2023-04-06T02:02:56;2.42;;;1.88;;
51438;SDS011;38816;51.142;-0.974;2023-04-06T02:05:22;2.38;;;1.90;;
51438;SDS011;38816;51.142;-0.974;2023-04-06T02:07:47;2.40;;;1.67;;
51438;SDS011;38816;51.142;-0.974;2023-04-06T02:10:14;2.63;;;2.05;;
51438;SDS011;38816;51.142;-0.974;2023-04-06T02:12:40;1.88;;;1.50;;
51438;SDS011;38816;51.142;-0.974;2023-04-06T02:15:05;1.98;;;1.48;;
51438;SDS011;38816;51.142;-0.974;2023-04-06T02:17:31;3.47;;;1.90;;
51438;SDS011;38816;51.142;-0.974;2023-04-06T02:19:57;3.72;;;2.10;;
51438;SDS011;38816;51.142;-0.974;2023-04-06T02:22:22;3.45;;;2.50;;
51438;SDS011;38816;51.142;-0.974;2023-04-06T02:24:48;5.35;;;2.78;;
51438;SDS011;38816;51.142;-0.974;2023-04-06T02:27:14;3.70;;;2.30;;
51438;SDS011;38816;51.142;-0.974;2023-04-06T02:29:39;4.57;;;2.70;;
51438;SDS011;38816;51.142;-0.974;2023-04-06T02:32:05;3.90;;;2.80;;
51438;SDS011;38816;51.142;-0.974;2023-04-06T02:34:30;4.03;;;2.33;;
51438;SDS011;38816;51.142;-0.974;2023-04-06T02:36:56;3.85;;;2.47;;
51438;SDS011;38816;51.142;-0.974;2023-04-06T02:39:21;4.82;;;2.80;;
51438;SDS011;38816;51.142;-0.974;2023-04-06T02:41:47;3.70;;;2.55;;
51438;SDS011;38816;51.142;-0.974;2023-04-06T02:44:13;2.50;;;2.03;;
51438;SDS011;38816;51.142;-0.974;2023-04-06T02:46:38;2.88;;;2.10;;
51438;SDS011;38816;51.142;-0.974;2023-04-06T02:49:03;3.15;;;2.08;;
51438;SDS011;38816;51.142;-0.974;2023-04-06T02:51:29;2.22;;;1.77;;
51438;SDS011;38816;51.142;-0.974;2023-04-06T02:53:54;3.67;;;2.03;;
51438;SDS011;38816;51.142;-0.974;2023-04-06T02:56:20;2.67;;;1.88;;
51438;SDS011;38816;51.142;-0.974;2023-04-06T02:58:46;4.32;;;2.50;;
51438;SDS011;38816;51.142;-0.974;2023-04-06T03:01:12;3.17;;;2.00;;
51438;SDS011;38816;51.142;-0.974;2023-04-06T03:03:37;4.35;;;2.22;;
51438;SDS011;38816;51.142;-0.974;2023-04-06T03:06:03;8.50;;;2.67;;
51438;SDS011;38816;51.142;-0.974;2023-04-06T03:08:28;9.70;;;5.07;;
51438;SDS011;38816;51.142;-0.974;2023-04-06T03:10:55;10.20;;;3.38;;
51438;SDS011;38816;51.142;-0.974;2023-04-06T03:13:21;5.72;;;3.33;;
51438;SDS011;38816;51.142;-0.974;2023-04-06T03:15:46;5.03;;;3.53;;
51438;SDS011;38816;51.142;-0.974;2023-04-06T03:18:12;5.20;;;3.72;;
51438;SDS011;38816;51.142;-0.974;2023-04-06T03:20:37;6.47;;;4.40;;
51438;SDS011;38816;51.142;-0.974;2023-04-06T03:23:02;6.90;;;4.78;;
51438;SDS011;38816;51.142;-0.974;2023-04-06T03:25:28;9.90;;;5.55;;
51438;SDS011;38816;51.142;-0.974;2023-04-06T03:27:55;8.35;;;5.10;;
51438;SDS011;38816;51.142;-0.974;2023-04-06T03:30:20;11.85;;;5.28;;
51438;SDS011;38816;51.142;-0.974;2023-04-06T03:32:46;6.93;;;4.82;;
51438;SDS011;38816;51.142;-0.974;2023-04-06T03:35:11;7.22;;;4.72;;
51438;SDS011;38816;51.142;-0.974;2023-04-06T03:37:37;11.27;;;5.53;;
51438;SDS011;38816;51.142;-0.974;2023-04-06T03:40:02;9.82;;;5.82;;
51438;SDS011;38816;51.142;-0.974;2023-04-06T03:42:29;8.43;;;5.57;;
51438;SDS011;38816;51.142;-0.974;2023-04-06T03:44:54;7.50;;;5.28;;
51438;SDS011;38816;51.142;-0.974;2023-04-06T03:47:20;9.25;;;5.93;;
51438;SDS011;38816;51.142;-0.974;2023-04-06T03:49:45;8.27;;;5.18;;
51438;SDS011;38816;51.142;-0.974;2023-04-06T03:52:10;8.50;;;5.72;;
51438;SDS011;38816;51.142;-0.974;2023-04-06T03:54:36;8.68;;;5.38;;
51438;SDS011;38816;51.142;-0.974;2023-04-06T03:57:01;7.53;;;5.03;;
51438;SDS011;38816;51.142;-0.974;2023-04-06T03:59:27;8.13;;;5.20;;
51438;SDS011;38816;51.142;-0.974;2023-04-06T04:04:27;7.20;;;4.68;;
51438;SDS011;38816;51.142;-0.974;2023-04-06T04:06:56;6.43;;;4.68;;
51438;SDS011;38816;51.142;-0.974;2023-04-06T04:09:21;7.85;;;4.03;;
51438;SDS011;38816;51.142;-0.974;2023-04-06T04:11:47;7.28;;;4.80;;
51438;SDS011;38816;51.142;-0.974;2023-04-06T04:14:12;5.97;;;4.25;;
51438;SDS011;38816;51.142;-0.974;2023-04-06T04:16:38;5.85;;;3.95;;
51438;SDS011;38816;51.142;-0.974;2023-04-06T04:19:04;6.85;;;4.57;;
51438;SDS011;38816;51.142;-0.974;2023-04-06T04:21:29;5.07;;;3.63;;
51438;SDS011;38816;51.142;-0.974;2023-04-06T04:23:56;5.57;;;3.85;;
51438;SDS011;38816;51.142;-0.974;2023-04-06T04:26:21;6.40;;;4.10;;
51438;SDS011;38816;51.142;-0.974;2023-04-06T04:28:47;4.97;;;3.50;;
51438;SDS011;38816;51.142;-0.974;2023-04-06T04:31:12;6.03;;;3.80;;
51438;SDS011;38816;51.142;-0.974;2023-04-06T04:33:38;5.15;;;3.53;;
51438;SDS011;38816;51.142;-0.974;2023-04-06T04:36:03;5.53;;;3.17;;
51438;SDS011;38816;51.142;-0.974;2023-04-06T04:38:29;8.13;;;3.60;;
51438;SDS011;38816;51.142;-0.974;2023-04-06T04:40:54;5.03;;;3.45;;
51438;SDS011;38816;51.142;-0.974;2023-04-06T04:43:20;5.72;;;3.88;;
51438;SDS011;38816;51.142;-0.974;2023-04-06T04:45:45;5.35;;;3.50;;
51438;SDS011;38816;51.142;-0.974;2023-04-06T04:48:10;5.53;;;3.45;;
51438;SDS011;38816;51.142;-0.974;2023-04-06T04:50:36;4.25;;;3.30;;
51438;SDS011;38816;51.142;-0.974;2023-04-06T04:53:01;7.00;;;2.63;;
51438;SDS011;38816;51.142;-0.974;2023-04-06T04:55:27;22.95;;;3.17;;
51438;SDS011;38816;51.142;-0.974;2023-04-06T04:57:54;3.80;;;2.78;;
51438;SDS011;38816;51.142;-0.974;2023-04-06T05:00:19;5.07;;;3.20;;
51438;SDS011;38816;51.142;-0.974;2023-04-06T05:02:45;3.67;;;2.95;;
51438;SDS011;38816;51.142;-0.974;2023-04-06T05:05:11;5.38;;;3.22;;
51438;SDS011;38816;51.142;-0.974;2023-04-06T05:07:36;4.43;;;2.63;;
51438;SDS011;38816;51.142;-0.974;2023-04-06T05:10:02;4.35;;;3.08;;
51438;SDS011;38816;51.142;-0.974;2023-04-06T05:12:27;3.83;;;2.47;;
51438;SDS011;38816;51.142;-0.974;2023-04-06T05:14:53;3.20;;;2.65;;
51438;SDS011;38816;51.142;-0.974;2023-04-06T05:17:18;4.93;;;2.95;;
51438;SDS011;38816;51.142;-0.974;2023-04-06T05:19:44;4.53;;;2.90;;
51438;SDS011;38816;51.142;-0.974;2023-04-06T05:22:10;10.70;;;5.35;;
51438;SDS011;38816;51.142;-0.974;2023-04-06T05:24:36;12.23;;;6.15;;
51438;SDS011;38816;51.142;-0.974;2023-04-06T05:27:01;8.05;;;4.45;;
51438;SDS011;38816;51.142;-0.974;2023-04-06T05:29:27;3.65;;;2.72;;
51438;SDS011;38816;51.142;-0.974;2023-04-06T05:31:52;2.92;;;2.30;;
51438;SDS011;38816;51.142;-0.974;2023-04-06T05:34:17;4.50;;;2.20;;
51438;SDS011;38816;51.142;-0.974;2023-04-06T05:36:43;4.07;;;2.67;;
51438;SDS011;38816;51.142;-0.974;2023-04-06T05:39:08;3.03;;;2.13;;
51438;SDS011;38816;51.142;-0.974;2023-04-06T05:41:34;2.47;;;1.92;;
51438;SDS011;38816;51.142;-0.974;2023-04-06T05:43:59;3.30;;;2.15;;
51438;SDS011;38816;51.142;-0.974;2023-04-06T05:46:24;2.97;;;1.95;;
51438;SDS011;38816;51.142;-0.974;2023-04-06T05:48:50;2.40;;;1.88;;
51438;SDS011;38816;51.142;-0.974;2023-04-06T05:51:15;2.85;;;2.00;;
51438;SDS011;38816;51.142;-0.974;2023-04-06T05:53:41;3.97;;;1.80;;
51438;SDS011;38816;51.142;-0.974;2023-04-06T05:56:06;2.80;;;1.50;;
51438;SDS011;38816;51.142;-0.974;2023-04-06T05:58:32;2.13;;;1.27;;
51438;SDS011;38816;51.142;-0.974;2023-04-06T06:00:57;2.00;;;1.10;;
51438;SDS011;38816;51.142;-0.974;2023-04-06T06:03:26;1.45;;;1.02;;
51438;SDS011;38816;51.142;-0.974;2023-04-06T06:05:51;2.90;;;1.52;;
51438;SDS011;38816;51.142;-0.974;2023-04-06T06:08:17;2.28;;;1.17;;
51438;SDS011;38816;51.142;-0.974;2023-04-06T06:10:42;1.52;;;1.13;;
51438;SDS011;38816;51.142;-0.974;2023-04-06T06:13:08;2.35;;;1.48;;
51438;SDS011;38816;51.142;-0.974;2023-04-06T06:15:34;2.60;;;1.45;;
51438;SDS011;38816;51.142;-0.974;2023-04-06T06:17:59;3.03;;;1.38;;
51438;SDS011;38816;51.142;-0.974;2023-04-06T06:20:25;5.72;;;1.50;;
51438;SDS011;38816;51.142;-0.974;2023-04-06T06:22:51;4.40;;;1.45;;
51438;SDS011;38816;51.142;-0.974;2023-04-06T06:25:17;4.00;;;1.52;;
51438;SDS011;38816;51.142;-0.974;2023-04-06T06:27:42;4.38;;;1.20;;
51438;SDS011;38816;51.142;-0.974;2023-04-06T06:30:08;2.25;;;1.10;;
51438;SDS011;38816;51.142;-0.974;2023-04-06T06:32:33;3.95;;;1.23;;
51438;SDS011;38816;51.142;-0.974;2023-04-06T06:34:59;4.13;;;0.85;;
51438;SDS011;38816;51.142;-0.974;2023-04-06T06:37:24;1.25;;;0.82;;
51438;SDS011;38816;51.142;-0.974;2023-04-06T06:39:49;5.75;;;1.00;;
51438;SDS011;38816;51.142;-0.974;2023-04-06T06:42:15;1.05;;;0.47;;
51438;SDS011;38816;51.142;-0.974;2023-04-06T06:44:40;2.60;;;1.00;;
51438;SDS011;38816;51.142;-0.974;2023-04-06T06:47:06;4.35;;;0.77;;
51438;SDS011;38816;51.142;-0.974;2023-04-06T06:49:31;5.60;;;1.42;;
51438;SDS011;38816;51.142;-0.974;2023-04-06T06:51:56;7.78;;;0.82;;
51438;SDS011;38816;51.142;-0.974;2023-04-06T06:54:22;2.45;;;1.08;;
51438;SDS011;38816;51.142;-0.974;2023-04-06T06:56:47;4.25;;;0.88;;
51438;SDS011;38816;51.142;-0.974;2023-04-06T06:59:12;2.03;;;0.88;;
51438;SDS011;38816;51.142;-0.974;2023-04-06T07:01:38;3.75;;;1.00;;
51438;SDS011;38816;51.142;-0.974;2023-04-06T07:04:03;2.35;;;1.02;;
51438;SDS011;38816;51.142;-0.974;2023-04-06T07:06:29;3.92;;;1.30;;
51438;SDS011;38816;51.142;-0.974;2023-04-06T07:08:54;1.40;;;0.70;;
51438;SDS011;38816;51.142;-0.974;2023-04-06T07:11:20;3.85;;;1.02;;
51438;SDS011;38816;51.142;-0.974;2023-04-06T07:13:45;6.28;;;1.17;;
51438;SDS011;38816;51.142;-0.974;2023-04-06T07:16:11;4.15;;;0.90;;
51438;SDS011;38816;51.142;-0.974;2023-04-06T07:18:42;7.15;;;1.65;;
51438;SDS011;38816;51.142;-0.974;2023-04-06T07:21:08;2.55;;;1.10;;
51438;SDS011;38816;51.142;-0.974;2023-04-06T07:23:33;5.22;;;1.20;;
51438;SDS011;38816;51.142;-0.974;2023-04-06T07:25:59;7.90;;;1.38;;
51438;SDS011;38816;51.142;-0.974;2023-04-06T07:28:24;3.80;;;1.30;;
51438;SDS011;38816;51.142;-0.974;2023-04-06T07:30:50;2.97;;;1.23;;
51438;SDS011;38816;51.142;-0.974;2023-04-06T07:33:15;4.13;;;1.15;;
51438;SDS011;38816;51.142;-0.974;2023-04-06T07:35:40;4.53;;;1.38;;
51438;SDS011;38816;51.142;-0.974;2023-04-06T07:38:06;4.63;;;1.27;;
51438;SDS011;38816;51.142;-0.974;2023-04-06T07:40:31;11.50;;;1.90;;
51438;SDS011;38816;51.142;-0.974;2023-04-06T07:42:57;5.85;;;1.48;;
51438;SDS011;38816;51.142;-0.974;2023-04-06T07:45:23;6.40;;;1.23;;
51438;SDS011;38816;51.142;-0.974;2023-04-06T07:47:48;7.38;;;1.48;;
51438;SDS011;38816;51.142;-0.974;2023-04-06T07:50:14;11.10;;;1.50;;
51438;SDS011;38816;51.142;-0.974;2023-04-06T07:52:40;8.30;;;1.50;;
51438;SDS011;38816;51.142;-0.974;2023-04-06T07:55:06;6.20;;;1.40;;
51438;SDS011;38816;51.142;-0.974;2023-04-06T07:57:31;9.43;;;1.50;;
51438;SDS011;38816;51.142;-0.974;2023-04-06T07:59:57;6.32;;;2.00;;
51438;SDS011;38816;51.142;-0.974;2023-04-06T08:02:22;6.18;;;1.70;;
51438;SDS011;38816;51.142;-0.974;2023-04-06T08:04:47;3.55;;;1.50;;
51438;SDS011;38816;51.142;-0.974;2023-04-06T08:07:13;6.80;;;1.80;;
51438;SDS011;38816;51.142;-0.974;2023-04-06T08:09:38;10.73;;;2.03;;
51438;SDS011;38816;51.142;-0.974;2023-04-06T08:12:04;14.00;;;2.63;;
51438;SDS011;38816;51.142;-0.974;2023-04-06T08:14:29;8.00;;;2.63;;
51438;SDS011;38816;51.142;-0.974;2023-04-06T08:16:55;6.18;;;1.60;;
51438;SDS011;38816;51.142;-0.974;2023-04-06T08:19:20;11.55;;;2.17;;
51438;SDS011;38816;51.142;-0.974;2023-04-06T08:21:46;6.88;;;2.30;;
51438;SDS011;38816;51.142;-0.974;2023-04-06T08:24:12;5.82;;;2.05;;
51438;SDS011;38816;51.142;-0.974;2023-04-06T08:26:38;8.80;;;2.20;;
51438;SDS011;38816;51.142;-0.974;2023-04-06T08:29:03;9.73;;;2.53;;
51438;SDS011;38816;51.142;-0.974;2023-04-06T08:31:29;8.13;;;2.17;;
51438;SDS011;38816;51.142;-0.974;2023-04-06T08:33:55;9.88;;;2.10;;
51438;SDS011;38816;51.142;-0.974;2023-04-06T08:36:21;11.20;;;2.28;;
51438;SDS011;38816;51.142;-0.974;2023-04-06T08:38:48;8.00;;;2.00;;
51438;SDS011;38816;51.142;-0.974;2023-04-06T08:41:15;9.63;;;2.45;;
51438;SDS011;38816;51.142;-0.974;2023-04-06T08:43:44;7.88;;;2.75;;
51438;SDS011;38816;51.142;-0.974;2023-04-06T08:46:13;10.80;;;2.50;;
51438;SDS011;38816;51.142;-0.974;2023-04-06T08:48:40;8.32;;;3.10;;
51438;SDS011;38816;51.142;-0.974;2023-04-06T08:51:07;8.65;;;2.55;;
51438;SDS011;38816;51.142;-0.974;2023-04-06T08:53:34;8.32;;;2.15;;
51438;SDS011;38816;51.142;-0.974;2023-04-06T08:55:59;8.27;;;2.58;;
51438;SDS011;38816;51.142;-0.974;2023-04-06T08:58:26;10.90;;;3.40;;
51438;SDS011;38816;51.142;-0.974;2023-04-06T09:00:54;7.88;;;3.60;;
51438;SDS011;38816;51.142;-0.974;2023-04-06T09:03:20;9.38;;;3.30;;
51438;SDS011;38816;51.142;-0.974;2023-04-06T09:05:46;8.00;;;3.22;;
51438;SDS011;38816;51.142;-0.974;2023-04-06T09:08:13;8.25;;;3.00;;
51438;SDS011;38816;51.142;-0.974;2023-04-06T09:10:42;10.68;;;2.92;;
51438;SDS011;38816;51.142;-0.974;2023-04-06T09:13:08;5.70;;;2.28;;
51438;SDS011;38816;51.142;-0.974;2023-04-06T09:15:33;9.48;;;3.60;;
51438;SDS011;38816;51.142;-0.974;2023-04-06T09:17:59;9.35;;;2.40;;
51438;SDS011;38816;51.142;-0.974;2023-04-06T09:20:25;11.00;;;3.75;;
51438;SDS011;38816;51.142;-0.974;2023-04-06T09:22:53;9.45;;;3.53;;
51438;SDS011;38816;51.142;-0.974;2023-04-06T09:25:19;12.88;;;4.10;;
51438;SDS011;38816;51.142;-0.974;2023-04-06T09:27:47;7.30;;;2.63;;
51438;SDS011;38816;51.142;-0.974;2023-04-06T09:30:14;11.55;;;3.55;;
51438;SDS011;38816;51.142;-0.974;2023-04-06T09:32:51;7.78;;;3.42;;
51438;SDS011;38816;51.142;-0.974;2023-04-06T09:35:18;7.80;;;3.22;;
51438;SDS011;38816;51.142;-0.974;2023-04-06T09:37:45;11.30;;;4.45;;
51438;SDS011;38816;51.142;-0.974;2023-04-06T09:40:12;9.10;;;4.00;;
51438;SDS011;38816;51.142;-0.974;2023-04-06T09:42:39;13.38;;;3.53;;
51438;SDS011;38816;51.142;-0.974;2023-04-06T09:45:06;9.95;;;3.33;;
51438;SDS011;38816;51.142;-0.974;2023-04-06T09:47:32;12.73;;;3.25;;
51438;SDS011;38816;51.142;-0.974;2023-04-06T09:49:58;8.02;;;3.45;;
51438;SDS011;38816;51.142;-0.974;2023-04-06T09:52:38;2.92;;;2.10;;
51438;SDS011;38816;51.142;-0.974;2023-04-06T09:55:04;4.72;;;2.20;;
51438;SDS011;38816;51.142;-0.974;2023-04-06T09:57:37;7.10;;;2.95;;
51438;SDS011;38816;51.142;-0.974;2023-04-06T10:00:12;6.15;;;2.65;;
51438;SDS011;38816;51.142;-0.974;2023-04-06T10:05:25;5.13;;;2.33;;
51438;SDS011;38816;51.142;-0.974;2023-04-06T10:08:11;6.38;;;2.83;;
51438;SDS011;38816;51.142;-0.974;2023-04-06T10:10:38;5.25;;;1.95;;
51438;SDS011;38816;51.142;-0.974;2023-04-06T10:13:04;2.80;;;1.77;;
51438;SDS011;38816;51.142;-0.974;2023-04-06T10:15:30;4.32;;;2.05;;
51438;SDS011;38816;51.142;-0.974;2023-04-06T10:17:56;5.20;;;2.38;;
51438;SDS011;38816;51.142;-0.974;2023-04-06T10:20:42;6.38;;;2.38;;
51438;SDS011;38816;51.142;-0.974;2023-04-06T10:23:23;8.48;;;1.60;;
51438;SDS011;38816;51.142;-0.974;2023-04-06T10:25:56;4.03;;;1.73;;
51438;SDS011;38816;51.142;-0.974;2023-04-06T10:28:23;2.35;;;1.27;;
51438;SDS011;38816;51.142;-0.974;2023-04-06T10:30:49;5.10;;;1.95;;
51438;SDS011;38816;51.142;-0.974;2023-04-06T10:33:22;3.22;;;1.58;;
51438;SDS011;38816;51.142;-0.974;2023-04-06T10:35:48;2.35;;;1.40;;
51438;SDS011;38816;51.142;-0.974;2023-04-06T10:38:13;4.03;;;1.23;;
51438;SDS011;38816;51.142;-0.974;2023-04-06T10:40:40;2.08;;;1.20;;
51438;SDS011;38816;51.142;-0.974;2023-04-06T10:43:13;6.97;;;1.85;;
51438;SDS011;38816;51.142;-0.974;2023-04-06T10:45:54;4.57;;;1.77;;
51438;SDS011;38816;51.142;-0.974;2023-04-06T10:48:21;4.95;;;1.55;;
51438;SDS011;38816;51.142;-0.974;2023-04-06T10:50:47;3.83;;;1.40;;
51438;SDS011;38816;51.142;-0.974;2023-04-06T10:53:47;4.47;;;1.30;;
51438;SDS011;38816;51.142;-0.974;2023-04-06T10:56:13;3.97;;;1.55;;
51438;SDS011;38816;51.142;-0.974;2023-04-06T10:58:46;3.83;;;1.08;;
51438;SDS011;38816;51.142;-0.974;2023-04-06T11:01:12;2.38;;;1.20;;
51438;SDS011;38816;51.142;-0.974;2023-04-06T11:03:51;11.73;;;1.50;;
51438;SDS011;38816;51.142;-0.974;2023-04-06T11:06:22;4.32;;;1.50;;
51438;SDS011;38816;51.142;-0.974;2023-04-06T11:08:48;3.83;;;1.27;;
51438;SDS011;38816;51.142;-0.974;2023-04-06T11:11:15;6.05;;;1.58;;
51438;SDS011;38816;51.142;-0.974;2023-04-06T11:13:59;3.60;;;1.80;;
51438;SDS011;38816;51.142;-0.974;2023-04-06T11:16:25;7.90;;;1.58;;
51438;SDS011;38816;51.142;-0.974;2023-04-06T11:18:55;3.22;;;1.40;;
51438;SDS011;38816;51.142;-0.974;2023-04-06T11:21:41;4.53;;;1.60;;
51438;SDS011;38816;51.142;-0.974;2023-04-06T11:26:42;4.35;;;1.60;;
51438;SDS011;38816;51.142;-0.974;2023-04-06T11:29:09;4.80;;;1.52;;
51438;SDS011;38816;51.142;-0.974;2023-04-06T11:31:41;3.90;;;1.20;;
51438;SDS011;38816;51.142;-0.974;2023-04-06T11:34:10;2.83;;;1.10;;
51438;SDS011;38816;51.142;-0.974;2023-04-06T11:36:36;1.63;;;1.10;;
51438;SDS011;38816;51.142;-0.974;2023-04-06T11:39:06;6.78;;;1.48;;
51438;SDS011;38816;51.142;-0.974;2023-04-06T11:41:32;3.88;;;1.17;;
51438;SDS011;38816;51.142;-0.974;2023-04-06T11:43:57;4.47;;;1.85;;
51438;SDS011;38816;51.142;-0.974;2023-04-06T11:46:26;10.32;;;1.77;;
51438;SDS011;38816;51.142;-0.974;2023-04-06T11:48:51;2.75;;;1.10;;
51438;SDS011;38816;51.142;-0.974;2023-04-06T11:51:22;3.65;;;1.15;;
51438;SDS011;38816;51.142;-0.974;2023-04-06T11:53:51;3.75;;;1.40;;
51438;SDS011;38816;51.142;-0.974;2023-04-06T11:56:29;6.10;;;1.50;;
51438;SDS011;38816;51.142;-0.974;2023-04-06T11:58:55;3.88;;;1.27;;
51438;SDS011;38816;51.142;-0.974;2023-04-06T12:01:22;5.35;;;1.05;;
51438;SDS011;38816;51.142;-0.974;2023-04-06T12:03:49;4.05;;;1.05;;
51438;SDS011;38816;51.142;-0.974;2023-04-06T12:06:15;4.38;;;1.02;;
51438;SDS011;38816;51.142;-0.974;2023-04-06T12:08:40;1.45;;;0.90;;
51438;SDS011;38816;51.142;-0.974;2023-04-06T12:11:06;2.85;;;0.98;;
51438;SDS011;38816;51.142;-0.974;2023-04-06T12:13:32;4.00;;;1.10;;
51438;SDS011;38816;51.142;-0.974;2023-04-06T12:15:57;6.22;;;1.40;;
51438;SDS011;38816;51.142;-0.974;2023-04-06T12:18:22;3.53;;;1.23;;
51438;SDS011;38816;51.142;-0.974;2023-04-06T12:20:48;1.98;;;1.13;;
51438;SDS011;38816;51.142;-0.974;2023-04-06T12:23:13;1.52;;;1.13;;
51438;SDS011;38816;51.142;-0.974;2023-04-06T12:25:39;4.90;;;1.05;;
51438;SDS011;38816;51.142;-0.974;2023-04-06T12:28:06;4.45;;;0.90;;
51438;SDS011;38816;51.142;-0.974;2023-04-06T12:30:31;2.92;;;1.20;;
51438;SDS011;38816;51.142;-0.974;2023-04-06T12:32:57;3.38;;;1.20;;
51438;SDS011;38816;51.142;-0.974;2023-04-06T12:35:23;6.75;;;1.33;;
51438;SDS011;38816;51.142;-0.974;2023-04-06T12:37:48;4.68;;;1.23;;
51438;SDS011;38816;51.142;-0.974;2023-04-06T12:40:13;3.60;;;0.90;;
51438;SDS011;38816;51.142;-0.974;2023-04-06T12:42:39;2.95;;;1.20;;
51438;SDS011;38816;51.142;-0.974;2023-04-06T12:45:08;5.35;;;1.80;;
51438;SDS011;38816;51.142;-0.974;2023-04-06T12:47:34;6.82;;;1.65;;
51438;SDS011;38816;51.142;-0.974;2023-04-06T12:50:01;4.82;;;1.67;;
51438;SDS011;38816;51.142;-0.974;2023-04-06T12:52:26;7.97;;;1.85;;
51438;SDS011;38816;51.142;-0.974;2023-04-06T12:54:52;5.32;;;1.70;;
51438;SDS011;38816;51.142;-0.974;2023-04-06T12:57:17;6.03;;;1.75;;
51438;SDS011;38816;51.142;-0.974;2023-04-06T12:59:43;7.57;;;2.05;;
51438;SDS011;38816;51.142;-0.974;2023-04-06T13:02:09;10.95;;;2.20;;
51438;SDS011;38816;51.142;-0.974;2023-04-06T13:04:35;4.47;;;1.63;;
51438;SDS011;38816;51.142;-0.974;2023-04-06T13:07:01;6.13;;;1.55;;
51438;SDS011;38816;51.142;-0.974;2023-04-06T13:09:26;7.05;;;1.40;;
51438;SDS011;38816;51.142;-0.974;2023-04-06T13:11:52;5.40;;;1.38;;
51438;SDS011;38816;51.142;-0.974;2023-04-06T13:14:17;5.38;;;1.17;;
51438;SDS011;38816;51.142;-0.974;2023-04-06T13:16:43;3.53;;;1.10;;
51438;SDS011;38816;51.142;-0.974;2023-04-06T13:19:08;3.25;;;0.80;;
51438;SDS011;38816;51.142;-0.974;2023-04-06T13:21:33;2.35;;;1.00;;
51438;SDS011;38816;51.142;-0.974;2023-04-06T13:23:59;1.88;;;0.90;;
51438;SDS011;38816;51.142;-0.974;2023-04-06T13:26:25;2.53;;;0.80;;
51438;SDS011;38816;51.142;-0.974;2023-04-06T13:28:50;1.23;;;0.57;;
51438;SDS011;38816;51.142;-0.974;2023-04-06T13:31:16;1.83;;;0.68;;
51438;SDS011;38816;51.142;-0.974;2023-04-06T13:33:41;4.03;;;1.00;;
51438;SDS011;38816;51.142;-0.974;2023-04-06T13:36:07;1.20;;;0.60;;
51438;SDS011;38816;51.142;-0.974;2023-04-06T13:38:33;1.55;;;0.68;;
51438;SDS011;38816;51.142;-0.974;2023-04-06T13:40:58;2.33;;;0.50;;
51438;SDS011;38816;51.142;-0.974;2023-04-06T13:43:24;2.78;;;0.80;;
51438;SDS011;38816;51.142;-0.974;2023-04-06T13:45:52;1.73;;;0.65;;
51438;SDS011;38816;51.142;-0.974;2023-04-06T13:48:19;1.95;;;0.60;;
51438;SDS011;38816;51.142;-0.974;2023-04-06T13:50:45;1.88;;;0.70;;
51438;SDS011;38816;51.142;-0.974;2023-04-06T13:53:11;1.63;;;0.60;;
51438;SDS011;38816;51.142;-0.974;2023-04-06T13:55:36;0.60;;;0.50;;
51438;SDS011;38816;51.142;-0.974;2023-04-06T13:58:02;1.17;;;0.80;;
51438;SDS011;38816;51.142;-0.974;2023-04-06T14:00:27;3.35;;;0.80;;
51438;SDS011;38816;51.142;-0.974;2023-04-06T14:02:53;2.05;;;0.70;;
51438;SDS011;38816;51.142;-0.974;2023-04-06T14:05:20;1.38;;;0.70;;
51438;SDS011;38816;51.142;-0.974;2023-04-06T14:07:46;3.13;;;0.55;;
51438;SDS011;38816;51.142;-0.974;2023-04-06T14:10:11;2.20;;;0.60;;
51438;SDS011;38816;51.142;-0.974;2023-04-06T14:12:42;0.50;;;0.50;;
51438;SDS011;38816;51.142;-0.974;2023-04-06T14:15:10;2.05;;;0.50;;
51438;SDS011;38816;51.142;-0.974;2023-04-06T14:17:36;0.77;;;0.47;;
51438;SDS011;38816;51.142;-0.974;2023-04-06T14:20:02;3.30;;;0.65;;
51438;SDS011;38816;51.142;-0.974;2023-04-06T14:22:28;1.05;;;0.50;;
51438;SDS011;38816;51.142;-0.974;2023-04-06T14:24:53;0.85;;;0.47;;
51438;SDS011;38816;51.142;-0.974;2023-04-06T14:27:19;1.00;;;0.50;;
51438;SDS011;38816;51.142;-0.974;2023-04-06T14:29:44;0.80;;;0.52;;
51438;SDS011;38816;51.142;-0.974;2023-04-06T14:32:10;0.22;;;0.20;;
51438;SDS011;38816;51.142;-0.974;2023-04-06T14:34:39;2.05;;;0.40;;
51438;SDS011;38816;51.142;-0.974;2023-04-06T14:37:04;0.60;;;0.40;;